Edwards Crossroads, North Carolina
Current Conditions -  °F | °C
As of 1:55 AM on Sunday 21 Dec 2014 (Local Time) from KGEV Reporting Station
Overcast Overcast  
Wind Chill: 33°   Ceiling: 900
Heat Index: 33°   Visibility: 7mi
Dew Point: 32°   Wind: 0mph
Humidity: 95%   Direction: NA
Pressure: 30.16"   Gusts: NA
Location:  36.5212°N, 81.1574°W
Report Text: KGEV 210655Z AUTO 00000KT 7SM BKN009 OVC012 01/00 A3016 RMK AO2 T00070000
Loading
Personal Weather Stations






























Interactive Weather Map New forecast layout! Learn more

10-Day Weather Forecast

Advertisements
Track Severe Weather on mobile